createdAt,value
2023-05-10T00:02:46.486Z,46.30
2023-05-10T00:07:54.077Z,46.39
2023-05-10T00:13:01.551Z,46.47
2023-05-10T00:18:09.187Z,46.48
2023-05-10T00:23:17.043Z,46.51
2023-05-10T00:28:24.434Z,46.70
2023-05-10T00:33:32.006Z,46.89
2023-05-10T00:38:39.391Z,47.04
2023-05-10T00:43:46.743Z,47.19
2023-05-10T00:48:54.690Z,47.28
2023-05-10T00:54:02.707Z,47.51
2023-05-10T00:59:10.863Z,47.59
2023-05-10T01:04:18.870Z,47.65
2023-05-10T01:09:27.644Z,47.65
2023-05-10T01:14:35.800Z,47.70
2023-05-10T01:19:44.019Z,47.86
2023-05-10T01:25:35.581Z,47.98
2023-05-10T01:31:10.469Z,48.09
2023-05-10T01:36:28.300Z,48.34
2023-05-10T01:41:43.562Z,48.57
2023-05-10T01:46:56.511Z,48.69
2023-05-10T01:52:11.473Z,48.90
2023-05-10T01:57:19.502Z,49.12
2023-05-10T02:02:28.864Z,49.29
2023-05-10T02:07:38.384Z,49.44
2023-05-10T02:12:49.210Z,49.67
2023-05-10T02:17:58.260Z,49.82
2023-05-10T02:23:06.770Z,49.99
2023-05-10T02:28:17.254Z,50.18
2023-05-10T02:33:25.534Z,50.26
2023-05-10T02:38:35.218Z,50.47
2023-05-10T02:43:44.827Z,50.68
2023-05-10T02:48:52.186Z,50.79
2023-05-10T02:54:00.537Z,51.00
2023-05-10T02:59:07.908Z,51.17
2023-05-10T03:04:15.372Z,51.29
2023-05-10T03:09:23.283Z,51.39
2023-05-10T03:14:46.459Z,51.43
2023-05-10T03:19:58.469Z,51.35
2023-05-10T03:25:11.188Z,51.24
2023-05-10T03:30:21.240Z,51.06
2023-05-10T03:35:29.007Z,51.03
2023-05-10T03:40:36.732Z,51.05
2023-05-10T03:45:44.343Z,51.09
2023-05-10T03:50:51.966Z,51.20
2023-05-10T03:55:59.468Z,51.32
2023-05-10T04:01:06.949Z,51.46
2023-05-10T04:06:14.270Z,51.58
2023-05-10T04:11:23.353Z,51.64
2023-05-10T04:16:31.111Z,51.62
2023-05-10T04:21:39.041Z,51.58
2023-05-10T04:26:47.103Z,51.51
2023-05-10T04:31:54.881Z,51.47
2023-05-10T04:37:02.214Z,51.58
2023-05-10T04:42:09.907Z,51.66
2023-05-10T04:47:17.703Z,51.71
2023-05-10T04:52:25.390Z,51.74
2023-05-10T04:57:33.058Z,51.75
2023-05-10T05:02:40.379Z,51.77
2023-05-10T05:07:48.240Z,51.73
2023-05-10T05:12:55.572Z,51.66
2023-05-10T05:18:03.256Z,51.53
2023-05-10T05:23:10.871Z,51.23
2023-05-10T05:28:18.441Z,50.84
2023-05-10T05:33:25.896Z,50.59
2023-05-10T05:38:33.340Z,50.15
2023-05-10T05:43:40.905Z,49.79
2023-05-10T05:48:48.104Z,49.36
2023-05-10T05:53:55.662Z,48.89
2023-05-10T05:59:03.378Z,48.40
2023-05-10T06:04:11.080Z,47.88
2023-05-10T06:09:18.539Z,47.25
2023-05-10T06:14:26.833Z,46.55
2023-05-10T06:19:34.446Z,46.02
2023-05-10T06:24:42.014Z,45.52
2023-05-10T06:29:52.256Z,45.13
2023-05-10T06:35:04.022Z,44.86
2023-05-10T06:40:13.329Z,44.54
2023-05-10T06:45:21.504Z,44.25
2023-05-10T06:50:29.547Z,43.70
2023-05-10T06:55:37.336Z,43.12
2023-05-10T07:00:46.697Z,42.42
2023-05-10T07:05:54.391Z,41.69
2023-05-10T07:11:08.581Z,40.69
2023-05-10T07:16:16.189Z,39.81
2023-05-10T07:21:25.345Z,39.14
2023-05-10T07:26:33.299Z,38.54
2023-05-10T07:31:43.345Z,38.40
2023-05-10T07:36:50.936Z,38.25
2023-05-10T07:41:58.423Z,37.66
2023-05-10T07:47:06.094Z,37.14
2023-05-10T07:52:13.361Z,37.11
2023-05-10T07:57:21.076Z,36.66
2023-05-10T08:03:15.310Z,36.29
2023-05-10T08:08:24.256Z,36.35
2023-05-10T08:13:32.814Z,35.86
2023-05-10T08:18:40.765Z,35.32
2023-05-10T08:23:48.190Z,34.84
2023-05-10T08:28:55.619Z,34.83
2023-05-10T08:34:03.307Z,34.81
2023-05-10T08:39:23.086Z,34.73
2023-05-10T08:44:37.278Z,34.42
2023-05-10T08:49:46.400Z,34.25
2023-05-10T08:54:54.077Z,34.06
2023-05-10T09:00:04.080Z,34.04
2023-05-10T09:05:13.347Z,33.95
2023-05-10T09:10:21.571Z,33.68
2023-05-10T09:15:29.136Z,33.66
2023-05-10T09:20:36.838Z,33.29
2023-05-10T09:25:45.956Z,33.05
2023-05-10T09:30:58.459Z,33.06
2023-05-10T09:36:13.912Z,33.14
2023-05-10T09:41:26.536Z,33.12
2023-05-10T09:46:38.378Z,33.12
2023-05-10T09:51:46.364Z,33.10
2023-05-10T09:56:53.983Z,33.04
2023-05-10T10:02:03.124Z,32.67
2023-05-10T10:07:11.366Z,32.40
2023-05-10T10:12:19.099Z,32.02
2023-05-10T10:17:27.538Z,31.59
2023-05-10T10:22:35.136Z,31.50
2023-05-10T10:27:51.228Z,31.46
2023-05-10T10:39:00.858Z,31.65
2023-05-10T10:44:30.726Z,31.65
2023-05-10T10:49:45.552Z,31.56
2023-05-10T10:55:04.499Z,31.55
2023-05-10T11:00:30.164Z,31.42
2023-05-10T11:05:46.355Z,31.37
2023-05-10T11:11:09.616Z,31.13
2023-05-10T11:16:22.396Z,30.90
2023-05-10T11:21:30.328Z,30.90
2023-05-10T11:26:42.436Z,30.51
2023-05-10T11:31:51.190Z,30.16
2023-05-10T11:37:00.304Z,30.22
2023-05-10T11:42:10.677Z,29.95
2023-05-10T11:47:18.427Z,29.74
2023-05-10T11:52:27.465Z,30.03
2023-05-10T11:57:35.441Z,29.85
2023-05-10T12:02:43.630Z,29.56
2023-05-10T12:07:51.725Z,29.48
2023-05-10T12:13:01.341Z,29.45
2023-05-10T12:18:09.784Z,29.39
2023-05-10T12:23:18.262Z,29.14
2023-05-10T12:28:26.335Z,29.11
2023-05-10T12:33:44.347Z,29.21
2023-05-10T12:38:53.279Z,29.34
2023-05-10T12:44:01.002Z,29.41
2023-05-10T12:49:09.862Z,29.39
2023-05-10T12:54:17.610Z,29.12
2023-05-10T12:59:25.399Z,29.16
2023-05-10T13:04:33.102Z,28.91
2023-05-10T13:09:40.624Z,28.91
2023-05-10T13:14:48.748Z,28.79
2023-05-10T13:19:56.440Z,28.79
2023-05-10T13:25:04.121Z,28.81
2023-05-10T13:30:14.187Z,28.72
2023-05-10T13:35:22.057Z,28.80
2023-05-10T13:40:29.768Z,28.73
2023-05-10T13:45:37.491Z,28.79
2023-05-10T13:50:45.852Z,28.60
2023-05-10T13:55:53.909Z,28.29
2023-05-10T14:01:02.072Z,28.36
2023-05-10T14:06:11.142Z,28.62
2023-05-10T14:11:19.141Z,28.52
2023-05-10T14:16:27.759Z,28.44
2023-05-10T14:21:35.995Z,28.55
2023-05-10T14:26:44.438Z,28.37
2023-05-10T14:31:52.696Z,28.13
2023-05-10T14:37:02.309Z,27.90
2023-05-10T14:42:10.352Z,27.90
2023-05-10T14:47:18.564Z,27.71
2023-05-10T14:52:26.368Z,27.66
2023-05-10T14:57:34.712Z,27.73
2023-05-10T15:02:43.117Z,27.73
2023-05-10T15:07:51.658Z,27.66
2023-05-10T15:12:59.705Z,27.73
2023-05-10T15:18:08.014Z,27.77
2023-05-10T15:23:16.605Z,27.84
2023-05-10T15:28:24.432Z,27.87
2023-05-10T15:33:32.288Z,27.67
2023-05-10T15:38:39.948Z,27.54
2023-05-10T15:43:47.835Z,27.54
2023-05-10T15:48:55.681Z,27.50
2023-05-10T15:54:07.810Z,27.44
2023-05-10T15:59:16.037Z,27.56
2023-05-10T16:04:24.782Z,27.48
2023-05-10T16:09:32.559Z,27.46
2023-05-10T16:14:40.457Z,27.36
2023-05-10T16:19:49.211Z,27.37
2023-05-10T16:24:57.032Z,27.43
2023-05-10T16:30:07.400Z,27.50
2023-05-10T16:35:16.000Z,27.56
2023-05-10T16:40:25.251Z,27.73
2023-05-10T16:45:35.178Z,27.80
2023-05-10T16:50:45.097Z,27.73
2023-05-10T16:55:54.327Z,27.77
2023-05-10T17:01:02.519Z,27.82
2023-05-10T17:06:12.166Z,27.81
2023-05-10T17:11:22.285Z,27.69
2023-05-10T17:16:31.361Z,27.74
2023-05-10T17:21:39.688Z,27.71
2023-05-10T17:26:47.165Z,27.72
2023-05-10T17:31:54.690Z,27.82
2023-05-10T17:37:02.781Z,27.86
2023-05-10T17:42:11.206Z,27.94
2023-05-10T17:47:19.347Z,27.99
2023-05-10T17:52:27.872Z,28.11
2023-05-10T17:57:35.158Z,28.21
2023-05-10T18:02:43.172Z,28.36
2023-05-10T18:07:50.945Z,28.48
2023-05-10T18:12:59.151Z,28.62
2023-05-10T18:18:07.885Z,28.79
2023-05-10T18:23:16.142Z,28.94
2023-05-10T18:28:27.977Z,29.01
2023-05-10T18:33:35.889Z,29.15
2023-05-10T18:38:43.947Z,29.27
2023-05-10T18:43:52.646Z,29.35
2023-05-10T18:49:04.229Z,29.41
2023-05-10T18:54:11.981Z,29.55
2023-05-10T18:59:20.242Z,29.71
2023-05-10T19:04:27.603Z,29.89
2023-05-10T19:09:35.728Z,30.09
2023-05-10T19:14:43.736Z,30.37
2023-05-10T19:19:51.456Z,30.52
2023-05-10T19:24:59.378Z,30.77
2023-05-10T19:30:08.250Z,31.02
2023-05-10T19:35:16.139Z,31.22
2023-05-10T19:40:23.784Z,31.27
2023-05-10T19:45:31.317Z,31.55
2023-05-10T19:50:39.159Z,31.88
2023-05-10T19:55:46.676Z,32.11
2023-05-10T20:00:55.363Z,32.28
2023-05-10T20:06:03.614Z,32.35
2023-05-10T20:11:11.224Z,32.67
2023-05-10T20:16:19.105Z,32.96
2023-05-10T20:21:27.082Z,33.21
2023-05-10T20:26:35.023Z,33.39
2023-05-10T20:31:42.707Z,33.62
2023-05-10T20:36:50.354Z,33.90
2023-05-10T20:41:57.808Z,34.26
2023-05-10T20:47:06.072Z,34.62
2023-05-10T20:52:13.638Z,34.94
2023-05-10T20:57:21.708Z,35.28
2023-05-10T21:02:29.924Z,35.62
2023-05-10T21:07:37.744Z,35.89
2023-05-10T21:12:45.295Z,36.33
2023-05-10T21:17:54.296Z,36.59
2023-05-10T21:23:01.978Z,36.75
2023-05-10T21:28:10.091Z,37.19
2023-05-10T21:33:17.822Z,37.66
2023-05-10T21:38:25.551Z,37.91
2023-05-10T21:43:33.194Z,38.24
2023-05-10T21:48:40.974Z,38.43
2023-05-10T21:53:48.398Z,38.73
2023-05-10T21:58:56.105Z,38.79
2023-05-10T22:04:03.587Z,39.10
2023-05-10T22:09:11.604Z,39.43
2023-05-10T22:14:19.921Z,39.70
2023-05-10T22:19:27.939Z,40.07
2023-05-10T22:24:36.174Z,40.23
2023-05-10T22:29:43.796Z,40.51
2023-05-10T22:34:51.174Z,40.74
2023-05-10T22:39:58.584Z,40.97
2023-05-10T22:45:06.748Z,41.26
2023-05-10T22:50:16.401Z,41.50
2023-05-10T22:55:24.409Z,41.74
2023-05-10T23:00:31.783Z,41.92
2023-05-10T23:05:39.429Z,42.12
2023-05-10T23:10:47.439Z,42.40
2023-05-10T23:15:55.263Z,42.81
2023-05-10T23:21:03.123Z,43.09
2023-05-10T23:26:10.707Z,43.43
2023-05-10T23:31:18.767Z,43.56
2023-05-10T23:36:26.401Z,43.75
2023-05-10T23:41:33.876Z,44.08
2023-05-10T23:46:41.599Z,44.24
2023-05-10T23:51:48.976Z,44.52
2023-05-10T23:56:56.371Z,44.65
